sensor_id;sensor_type;location;lat;lon;timestamp;pressure;altitude;pressure_sealevel;temperature;humidity
804;BME280;25687;49.976;8.240;2023-02-13T00:02:14;102229.94;;;4.52;100.00
804;BME280;25687;49.976;8.240;2023-02-13T00:04:40;102229.06;;;4.42;100.00
804;BME280;25687;49.976;8.240;2023-02-13T00:07:09;102221.56;;;4.82;100.00
804;BME280;25687;49.976;8.240;2023-02-13T00:09:36;102224.88;;;4.57;100.00
804;BME280;25687;49.976;8.240;2023-02-13T00:12:02;102226.50;;;4.39;100.00
804;BME280;25687;49.976;8.240;2023-02-13T00:14:27;102220.50;;;4.29;100.00
804;BME280;25687;49.976;8.240;2023-02-13T00:16:52;102214.47;;;4.18;100.00
804;BME280;25687;49.976;8.240;2023-02-13T00:19:17;102214.38;;;4.04;100.00
804;BME280;25687;49.976;8.240;2023-02-13T00:21:43;102210.94;;;3.97;100.00
804;BME280;25687;49.976;8.240;2023-02-13T00:24:08;102208.31;;;3.88;100.00
804;BME280;25687;49.976;8.240;2023-02-13T00:26:33;102212.47;;;3.74;100.00
804;BME280;25687;49.976;8.240;2023-02-13T00:28:59;102222.56;;;3.66;100.00
804;BME280;25687;49.976;8.240;2023-02-13T00:31:24;102215.66;;;3.51;100.00
804;BME280;25687;49.976;8.240;2023-02-13T00:33:49;102218.16;;;3.43;100.00
804;BME280;25687;49.976;8.240;2023-02-13T00:36:19;102217.19;;;3.33;100.00
804;BME280;25687;49.976;8.240;2023-02-13T00:38:45;102220.63;;;3.35;100.00
804;BME280;25687;49.976;8.240;2023-02-13T00:41:14;102213.81;;;3.33;100.00
804;BME280;25687;49.976;8.240;2023-02-13T00:43:42;102214.66;;;3.30;100.00
804;BME280;25687;49.976;8.240;2023-02-13T00:46:10;102213.06;;;3.42;100.00
804;BME280;25687;49.976;8.240;2023-02-13T00:48:36;102211.41;;;3.47;100.00
804;BME280;25687;49.976;8.240;2023-02-13T00:51:02;102212.13;;;3.33;100.00
804;BME280;25687;49.976;8.240;2023-02-13T00:53:28;102212.03;;;3.24;100.00
804;BME280;25687;49.976;8.240;2023-02-13T00:55:54;102210.31;;;3.21;100.00
804;BME280;25687;49.976;8.240;2023-02-13T00:58:20;102212.75;;;3.12;100.00
804;BME280;25687;49.976;8.240;2023-02-13T01:00:45;102207.66;;;3.09;100.00
804;BME280;25687;49.976;8.240;2023-02-13T01:03:12;102205.81;;;2.97;100.00
804;BME280;25687;49.976;8.240;2023-02-13T01:05:38;102213.38;;;2.91;100.00
804;BME280;25687;49.976;8.240;2023-02-13T01:08:03;102214.19;;;2.87;100.00
804;BME280;25687;49.976;8.240;2023-02-13T01:10:28;102209.84;;;2.78;100.00
804;BME280;25687;49.976;8.240;2023-02-13T01:12:54;102210.63;;;2.72;100.00
804;BME280;25687;49.976;8.240;2023-02-13T01:15:19;102212.25;;;2.67;100.00
804;BME280;25687;49.976;8.240;2023-02-13T01:17:45;102208.00;;;2.65;100.00
804;BME280;25687;49.976;8.240;2023-02-13T01:20:11;102205.38;;;2.57;100.00
804;BME280;25687;49.976;8.240;2023-02-13T01:22:37;102215.41;;;2.49;100.00
804;BME280;25687;49.976;8.240;2023-02-13T01:25:03;102209.56;;;2.55;100.00
804;BME280;25687;49.976;8.240;2023-02-13T01:27:29;102208.72;;;2.54;100.00
804;BME280;25687;49.976;8.240;2023-02-13T01:29:55;102217.16;;;2.53;100.00
804;BME280;25687;49.976;8.240;2023-02-13T01:32:20;102214.56;;;2.49;100.00
804;BME280;25687;49.976;8.240;2023-02-13T01:34:45;102213.72;;;2.48;100.00
804;BME280;25687;49.976;8.240;2023-02-13T01:37:11;102218.81;;;2.48;100.00
804;BME280;25687;49.976;8.240;2023-02-13T01:39:36;102221.31;;;2.47;100.00
804;BME280;25687;49.976;8.240;2023-02-13T01:42:02;102212.00;;;2.47;100.00
804;BME280;25687;49.976;8.240;2023-02-13T01:44:47;102215.22;;;2.34;100.00
804;BME280;25687;49.976;8.240;2023-02-13T01:47:17;102210.22;;;2.38;100.00
804;BME280;25687;49.976;8.240;2023-02-13T01:49:45;102208.47;;;2.36;100.00
804;BME280;25687;49.976;8.240;2023-02-13T01:52:12;102214.47;;;2.39;100.00
804;BME280;25687;49.976;8.240;2023-02-13T01:54:41;102202.50;;;2.34;100.00
804;BME280;25687;49.976;8.240;2023-02-13T01:57:13;102202.50;;;2.34;100.00
804;BME280;25687;49.976;8.240;2023-02-13T01:59:52;102215.13;;;2.28;100.00
804;BME280;25687;49.976;8.240;2023-02-13T02:02:19;102217.91;;;2.45;100.00
804;BME280;25687;49.976;8.240;2023-02-13T02:04:46;102206.03;;;2.45;100.00
804;BME280;25687;49.976;8.240;2023-02-13T02:07:32;102211.03;;;2.36;100.00
804;BME280;25687;49.976;8.240;2023-02-13T02:10:02;102206.84;;;2.41;100.00
804;BME280;25687;49.976;8.240;2023-02-13T02:12:35;102205.94;;;2.36;100.00
804;BME280;25687;49.976;8.240;2023-02-13T02:15:03;102213.66;;;2.45;100.00
804;BME280;25687;49.976;8.240;2023-02-13T02:17:29;102210.16;;;2.37;100.00
804;BME280;25687;49.976;8.240;2023-02-13T02:22:45;102199.13;;;2.33;100.00
804;BME280;25687;49.976;8.240;2023-02-13T02:31:23;102197.28;;;2.24;100.00
804;BME280;25687;49.976;8.240;2023-02-13T02:42:42;102200.72;;;2.28;100.00
804;BME280;25687;49.976;8.240;2023-02-13T02:45:21;102197.25;;;2.21;100.00
804;BME280;25687;49.976;8.240;2023-02-13T02:47:59;102198.84;;;2.13;100.00
804;BME280;25687;49.976;8.240;2023-02-13T02:50:52;102193.63;;;2.04;100.00
804;BME280;25687;49.976;8.240;2023-02-13T02:53:42;102201.09;;;1.94;100.00
804;BME280;25687;49.976;8.240;2023-02-13T02:56:26;102191.56;;;1.78;100.00
804;BME280;25687;49.976;8.240;2023-02-13T02:59:09;102200.06;;;1.80;100.00
804;BME280;25687;49.976;8.240;2023-02-13T03:01:55;102201.88;;;1.87;100.00
804;BME280;25687;49.976;8.240;2023-02-13T03:04:43;102202.59;;;1.80;100.00
804;BME280;25687;49.976;8.240;2023-02-13T03:07:28;102194.94;;;1.78;100.00
804;BME280;25687;49.976;8.240;2023-02-13T03:09:59;102203.31;;;1.73;100.00
804;BME280;25687;49.976;8.240;2023-02-13T03:12:51;102205.69;;;1.64;100.00
804;BME280;25687;49.976;8.240;2023-02-13T03:15:40;102199.69;;;1.58;100.00
804;BME280;25687;49.976;8.240;2023-02-13T03:18:25;102201.22;;;1.49;100.00
804;BME280;25687;49.976;8.240;2023-02-13T03:21:16;102202.00;;;1.44;100.00
804;BME280;25687;49.976;8.240;2023-02-13T03:24:15;102199.22;;;1.29;100.00
804;BME280;25687;49.976;8.240;2023-02-13T03:26:49;102199.22;;;1.29;100.00
804;BME280;25687;49.976;8.240;2023-02-13T03:29:40;102204.22;;;1.27;100.00
804;BME280;25687;49.976;8.240;2023-02-13T03:38:31;102203.97;;;1.12;100.00
804;BME280;25687;49.976;8.240;2023-02-13T03:41:15;102202.25;;;1.11;100.00
804;BME280;25687;49.976;8.240;2023-02-13T03:44:17;102206.41;;;1.06;100.00
804;BME280;25687;49.976;8.240;2023-02-13T03:46:49;102212.41;;;1.11;100.00
804;BME280;25687;49.976;8.240;2023-02-13T03:49:20;102211.56;;;1.10;100.00
804;BME280;25687;49.976;8.240;2023-02-13T03:52:10;102216.50;;;1.04;100.00
804;BME280;25687;49.976;8.240;2023-02-13T03:54:53;102216.28;;;0.92;100.00
804;BME280;25687;49.976;8.240;2023-02-13T03:57:40;102212.16;;;0.99;100.00
804;BME280;25687;49.976;8.240;2023-02-13T04:00:28;102218.03;;;0.96;100.00
804;BME280;25687;49.976;8.240;2023-02-13T04:05:39;102214.31;;;0.78;100.00
804;BME280;25687;49.976;8.240;2023-02-13T04:08:06;102215.06;;;0.74;100.00
804;BME280;25687;49.976;8.240;2023-02-13T04:10:33;102214.75;;;0.59;100.00
804;BME280;25687;49.976;8.240;2023-02-13T04:15:37;102213.59;;;0.44;100.00
804;BME280;25687;49.976;8.240;2023-02-13T04:18:21;102217.00;;;0.45;100.00
804;BME280;25687;49.976;8.240;2023-02-13T04:20:47;102217.97;;;0.52;100.00
804;BME280;25687;49.976;8.240;2023-02-13T04:23:14;102217.28;;;0.59;100.00
804;BME280;25687;49.976;8.240;2023-02-13T04:25:40;102217.25;;;0.57;100.00
804;BME280;25687;49.976;8.240;2023-02-13T04:28:08;102214.53;;;0.50;100.00
804;BME280;25687;49.976;8.240;2023-02-13T04:30:36;102212.94;;;0.53;100.00
804;BME280;25687;49.976;8.240;2023-02-13T04:33:02;102217.06;;;0.48;100.00
804;BME280;25687;49.976;8.240;2023-02-13T04:35:27;102213.66;;;0.46;100.00
804;BME280;25687;49.976;8.240;2023-02-13T04:37:52;102210.13;;;0.41;100.00
804;BME280;25687;49.976;8.240;2023-02-13T04:40:18;102211.84;;;0.40;100.00
804;BME280;25687;49.976;8.240;2023-02-13T04:42:43;102208.31;;;0.34;100.00
804;BME280;25687;49.976;8.240;2023-02-13T04:45:09;102205.72;;;0.32;100.00
804;BME280;25687;49.976;8.240;2023-02-13T04:47:34;102201.53;;;0.32;100.00
804;BME280;25687;49.976;8.240;2023-02-13T04:49:59;102199.88;;;0.35;100.00
804;BME280;25687;49.976;8.240;2023-02-13T04:52:25;102201.47;;;0.29;100.00
804;BME280;25687;49.976;8.240;2023-02-13T04:54:50;102201.31;;;0.23;100.00
804;BME280;25687;49.976;8.240;2023-02-13T04:57:15;102199.66;;;0.24;100.00
804;BME280;25687;49.976;8.240;2023-02-13T04:59:40;102203.81;;;0.20;100.00
804;BME280;25687;49.976;8.240;2023-02-13T05:02:06;102199.63;;;0.22;100.00
804;BME280;25687;49.976;8.240;2023-02-13T05:04:31;102197.78;;;0.15;100.00
804;BME280;25687;49.976;8.240;2023-02-13T05:06:56;102196.75;;;0.07;100.00
804;BME280;25687;49.976;8.240;2023-02-13T05:09:22;102194.09;;;0.02;100.00
804;BME280;25687;49.976;8.240;2023-02-13T05:11:50;102199.13;;;-0.01;100.00
804;BME280;25687;49.976;8.240;2023-02-13T05:14:15;102199.97;;;-0.01;100.00
804;BME280;25687;49.976;8.240;2023-02-13T05:16:41;102198.91;;;-0.09;100.00
804;BME280;25687;49.976;8.240;2023-02-13T05:19:06;102196.53;;;-0.03;100.00
804;BME280;25687;49.976;8.240;2023-02-13T05:21:31;102201.56;;;-0.04;100.00
804;BME280;25687;49.976;8.240;2023-02-13T05:24:15;102200.72;;;-0.05;100.00
804;BME280;25687;49.976;8.240;2023-02-13T05:26:40;102201.50;;;-0.07;100.00
804;BME280;25687;49.976;8.240;2023-02-13T05:29:06;102202.31;;;-0.08;100.00
804;BME280;25687;49.976;8.240;2023-02-13T05:31:47;102211.09;;;-0.29;100.00
804;BME280;25687;49.976;8.240;2023-02-13T05:34:13;102215.59;;;-0.17;100.00
804;BME280;25687;49.976;8.240;2023-02-13T05:36:38;102212.03;;;-0.25;100.00
804;BME280;25687;49.976;8.240;2023-02-13T05:39:04;102210.47;;;-0.20;100.00
804;BME280;25687;49.976;8.240;2023-02-13T05:41:29;102204.44;;;-0.25;100.00
804;BME280;25687;49.976;8.240;2023-02-13T05:43:55;102210.38;;;-0.25;100.00
804;BME280;25687;49.976;8.240;2023-02-13T05:46:20;102212.13;;;-0.22;100.00
804;BME280;25687;49.976;8.240;2023-02-13T05:48:45;102211.38;;;-0.18;100.00
804;BME280;25687;49.976;8.240;2023-02-13T05:51:10;102214.59;;;-0.24;100.00
804;BME280;25687;49.976;8.240;2023-02-13T05:53:36;102214.50;;;-0.28;100.00
804;BME280;25687;49.976;8.240;2023-02-13T05:56:04;102212.81;;;-0.28;100.00
804;BME280;25687;49.976;8.240;2023-02-13T05:58:30;102214.59;;;-0.24;100.00
804;BME280;25687;49.976;8.240;2023-02-13T06:00:56;102218.00;;;-0.23;100.00
804;BME280;25687;49.976;8.240;2023-02-13T06:03:23;102212.19;;;-0.19;100.00
804;BME280;25687;49.976;8.240;2023-02-13T06:05:49;102217.22;;;-0.19;100.00
804;BME280;25687;49.976;8.240;2023-02-13T06:08:15;102214.53;;;-0.27;100.00
804;BME280;25687;49.976;8.240;2023-02-13T06:10:40;102211.88;;;-0.31;100.00
804;BME280;25687;49.976;8.240;2023-02-13T06:13:05;102215.19;;;-0.34;100.00
804;BME280;25687;49.976;8.240;2023-02-13T06:15:30;102214.44;;;-0.30;100.00
804;BME280;25687;49.976;8.240;2023-02-13T06:17:56;102213.72;;;-0.26;100.00
804;BME280;25687;49.976;8.240;2023-02-13T06:20:21;102209.38;;;-0.30;100.00
804;BME280;25687;49.976;8.240;2023-02-13T06:22:48;102213.56;;;-0.32;100.00
804;BME280;25687;49.976;8.240;2023-02-13T06:25:14;102211.88;;;-0.31;100.00
804;BME280;25687;49.976;8.240;2023-02-13T06:27:40;102216.03;;;-0.34;100.00
804;BME280;25687;49.976;8.240;2023-02-13T06:30:06;102216.94;;;-0.31;100.00
804;BME280;25687;49.976;8.240;2023-02-13T06:32:31;102216.88;;;-0.35;100.00
804;BME280;25687;49.976;8.240;2023-02-13T06:34:56;102212.59;;;-0.37;100.00
804;BME280;25687;49.976;8.240;2023-02-13T06:37:21;102210.94;;;-0.35;100.00
804;BME280;25687;49.976;8.240;2023-02-13T06:39:47;102213.44;;;-0.37;100.00
804;BME280;25687;49.976;8.240;2023-02-13T06:42:12;102205.88;;;-0.35;100.00
804;BME280;25687;49.976;8.240;2023-02-13T06:44:37;102212.75;;;-0.31;100.00
804;BME280;25687;49.976;8.240;2023-02-13T06:47:03;102216.28;;;-0.24;100.00
804;BME280;25687;49.976;8.240;2023-02-13T06:49:28;102216.38;;;-0.20;100.00
804;BME280;25687;49.976;8.240;2023-02-13T06:51:53;102219.75;;;-0.19;100.00
804;BME280;25687;49.976;8.240;2023-02-13T06:54:18;102224.81;;;-0.19;100.00
804;BME280;25687;49.976;8.240;2023-02-13T06:56:44;102221.53;;;-0.15;100.00
804;BME280;25687;49.976;8.240;2023-02-13T06:59:09;102226.53;;;-0.18;100.00
804;BME280;25687;49.976;8.240;2023-02-13T07:01:34;102219.00;;;-0.15;100.00
804;BME280;25687;49.976;8.240;2023-02-13T07:03:59;102224.34;;;-0.04;100.00
804;BME280;25687;49.976;8.240;2023-02-13T07:06:25;102221.81;;;-0.03;100.00
804;BME280;25687;49.976;8.240;2023-02-13T07:08:50;102224.44;;;0.01;100.00
804;BME280;25687;49.976;8.240;2023-02-13T07:11:21;102223.69;;;0.05;100.00
804;BME280;25687;49.976;8.240;2023-02-13T07:13:46;102226.19;;;0.03;100.00
804;BME280;25687;49.976;8.240;2023-02-13T07:16:12;102221.91;;;0.01;100.00
804;BME280;25687;49.976;8.240;2023-02-13T07:18:37;102230.59;;;0.10;100.00
804;BME280;25687;49.976;8.240;2023-02-13T07:21:03;102220.75;;;0.24;100.00
804;BME280;25687;49.976;8.240;2023-02-13T07:23:28;102220.94;;;0.32;100.00
804;BME280;25687;49.976;8.240;2023-02-13T07:25:53;102220.91;;;0.30;100.00
804;BME280;25687;49.976;8.240;2023-02-13T07:28:19;102226.91;;;0.36;100.00
804;BME280;25687;49.976;8.240;2023-02-13T07:30:44;102222.88;;;0.44;100.00
804;BME280;25687;49.976;8.240;2023-02-13T07:33:09;102224.81;;;0.56;100.00
804;BME280;25687;49.976;8.240;2023-02-13T07:35:34;102224.13;;;0.63;100.00
804;BME280;25687;49.976;8.240;2023-02-13T07:38:02;102228.50;;;0.72;100.00
804;BME280;25687;49.976;8.240;2023-02-13T07:40:28;102220.91;;;0.70;100.00
804;BME280;25687;49.976;8.240;2023-02-13T07:42:53;102225.53;;;0.91;100.00
804;BME280;25687;49.976;8.240;2023-02-13T07:45:19;102223.94;;;0.96;100.00
804;BME280;25687;49.976;8.240;2023-02-13T07:47:44;102222.63;;;1.16;100.00
804;BME280;25687;49.976;8.240;2023-02-13T07:50:09;102226.31;;;1.32;100.00
804;BME280;25687;49.976;8.240;2023-02-13T07:52:35;102228.09;;;1.39;100.00
804;BME280;25687;49.976;8.240;2023-02-13T07:55:02;102225.13;;;1.61;100.00
804;BME280;25687;49.976;8.240;2023-02-13T07:57:27;102232.88;;;1.69;100.00
804;BME280;25687;49.976;8.240;2023-02-13T07:59:52;102231.34;;;1.81;100.00
804;BME280;25687;49.976;8.240;2023-02-13T08:02:18;102231.66;;;2.01;100.00
804;BME280;25687;49.976;8.240;2023-02-13T08:04:43;102231.97;;;2.21;100.00
804;BME280;25687;49.976;8.240;2023-02-13T08:07:12;102228.88;;;2.42;100.00
804;BME280;25687;49.976;8.240;2023-02-13T08:09:37;102235.94;;;2.65;100.00
804;BME280;25687;49.976;8.240;2023-02-13T08:12:21;102232.81;;;2.86;100.00
804;BME280;25687;49.976;8.240;2023-02-13T08:14:47;102232.97;;;3.00;100.00
804;BME280;25687;49.976;8.240;2023-02-13T08:17:12;102234.84;;;3.16;100.00
804;BME280;25687;49.976;8.240;2023-02-13T08:19:37;102235.75;;;3.23;100.00
804;BME280;25687;49.976;8.240;2023-02-13T08:22:03;102237.59;;;3.38;100.00
804;BME280;25687;49.976;8.240;2023-02-13T08:24:28;102230.09;;;3.50;100.00
804;BME280;25687;49.976;8.240;2023-02-13T08:26:54;102228.50;;;3.62;100.00
804;BME280;25687;49.976;8.240;2023-02-13T08:29:20;102225.13;;;3.64;100.00
804;BME280;25687;49.976;8.240;2023-02-13T08:31:45;102229.31;;;3.59;100.00
804;BME280;25687;49.976;8.240;2023-02-13T08:34:10;102225.94;;;3.59;100.00
804;BME280;25687;49.976;8.240;2023-02-13T08:36:36;102232.03;;;3.78;100.00
804;BME280;25687;49.976;8.240;2023-02-13T08:39:01;102229.56;;;3.90;100.00
804;BME280;25687;49.976;8.240;2023-02-13T08:41:26;102228.75;;;3.94;100.00
804;BME280;25687;49.976;8.240;2023-02-13T08:43:53;102236.34;;;3.88;100.00
804;BME280;25687;49.976;8.240;2023-02-13T08:46:18;102234.59;;;3.82;100.00
804;BME280;25687;49.976;8.240;2023-02-13T08:48:44;102235.50;;;3.89;100.00
804;BME280;25687;49.976;8.240;2023-02-13T08:51:11;102237.31;;;4.04;100.00
804;BME280;25687;49.976;8.240;2023-02-13T08:53:37;102240.69;;;4.00;100.00
804;BME280;25687;49.976;8.240;2023-02-13T08:56:03;102232.19;;;4.01;100.00
804;BME280;25687;49.976;8.240;2023-02-13T08:58:28;102231.31;;;3.97;100.00
804;BME280;25687;49.976;8.240;2023-02-13T09:00:54;102232.25;;;4.10;100.00
804;BME280;25687;49.976;8.240;2023-02-13T09:03:19;102228.19;;;4.37;100.00
804;BME280;25687;49.976;8.240;2023-02-13T09:05:44;102235.84;;;4.46;100.00
804;BME280;25687;49.976;8.240;2023-02-13T09:08:10;102230.03;;;4.72;100.00
804;BME280;25687;49.976;8.240;2023-02-13T09:10:39;102230.03;;;4.71;100.00
804;BME280;25687;49.976;8.240;2023-02-13T09:13:05;102229.19;;;4.75;100.00
804;BME280;25687;49.976;8.240;2023-02-13T09:15:31;102226.69;;;4.87;100.00
804;BME280;25687;49.976;8.240;2023-02-13T09:17:56;102231.91;;;5.21;100.00
804;BME280;25687;49.976;8.240;2023-02-13T09:20:22;102219.09;;;6.46;100.00
804;BME280;25687;49.976;8.240;2023-02-13T09:22:47;102212.41;;;7.67;100.00
804;BME280;25687;49.976;8.240;2023-02-13T09:25:13;102217.59;;;9.15;100.00
804;BME280;25687;49.976;8.240;2023-02-13T09:27:38;102213.44;;;9.61;100.00
804;BME280;25687;49.976;8.240;2023-02-13T09:30:05;102209.28;;;10.49;100.00
804;BME280;25687;49.976;8.240;2023-02-13T09:32:31;102208.38;;;11.66;100.00
804;BME280;25687;49.976;8.240;2023-02-13T09:34:56;102216.69;;;10.19;100.00
804;BME280;25687;49.976;8.240;2023-02-13T09:37:21;102220.56;;;11.23;100.00
804;BME280;25687;49.976;8.240;2023-02-13T09:39:47;102219.19;;;11.79;100.00
804;BME280;25687;49.976;8.240;2023-02-13T09:42:25;102224.00;;;11.60;100.00
804;BME280;25687;49.976;8.240;2023-02-13T09:44:54;102220.22;;;12.69;99.75
804;BME280;25687;49.976;8.240;2023-02-13T09:47:30;102218.81;;;12.57;98.38
804;BME280;25687;49.976;8.240;2023-02-13T09:50:02;102227.13;;;10.99;100.00
804;BME280;25687;49.976;8.240;2023-02-13T09:52:32;102226.59;;;10.83;100.00
804;BME280;25687;49.976;8.240;2023-02-13T09:54:57;102221.72;;;12.47;100.00
804;BME280;25687;49.976;8.240;2023-02-13T09:57:33;102239.28;;;10.92;100.00
804;BME280;25687;49.976;8.240;2023-02-13T10:00:06;102227.78;;;12.46;99.33
804;BME280;25687;49.976;8.240;2023-02-13T10:02:57;102226.75;;;12.51;94.44
804;BME280;25687;49.976;8.240;2023-02-13T10:10:59;102226.63;;;14.66;80.55
804;BME280;25687;49.976;8.240;2023-02-13T10:16:52;102227.22;;;16.03;62.83
804;BME280;25687;49.976;8.240;2023-02-13T10:19:40;102237.63;;;14.49;67.83
804;BME280;25687;49.976;8.240;2023-02-13T10:22:11;102224.22;;;13.63;82.60
804;BME280;25687;49.976;8.240;2023-02-13T10:24:49;102227.25;;;14.49;70.75
804;BME280;25687;49.976;8.240;2023-02-13T10:27:20;102228.00;;;13.24;87.18
804;BME280;25687;49.976;8.240;2023-02-13T10:29:56;102227.19;;;12.36;93.35
804;BME280;25687;49.976;8.240;2023-02-13T10:32:36;102232.81;;;10.73;100.00
804;BME280;25687;49.976;8.240;2023-02-13T10:35:20;102230.31;;;9.76;100.00
804;BME280;25687;49.976;8.240;2023-02-13T10:37:49;102228.22;;;9.98;100.00
804;BME280;25687;49.976;8.240;2023-02-13T10:40:17;102223.72;;;9.61;100.00
804;BME280;25687;49.976;8.240;2023-02-13T10:42:53;102220.56;;;8.09;100.00
804;BME280;25687;49.976;8.240;2023-02-13T10:48:34;102216.91;;;7.34;100.00
804;BME280;25687;49.976;8.240;2023-02-13T10:51:16;102211.84;;;7.31;100.00
804;BME280;25687;49.976;8.240;2023-02-13T10:59:29;102204.06;;;7.41;100.00
804;BME280;25687;49.976;8.240;2023-02-13T11:02:25;102205.00;;;7.28;100.00
804;BME280;25687;49.976;8.240;2023-02-13T11:07:37;102198.13;;;7.36;100.00
804;BME280;25687;49.976;8.240;2023-02-13T11:10:13;102193.91;;;7.31;100.00
804;BME280;25687;49.976;8.240;2023-02-13T11:12:39;102193.06;;;7.25;100.00
804;BME280;25687;49.976;8.240;2023-02-13T11:15:07;102197.25;;;7.42;100.00
804;BME280;25687;49.976;8.240;2023-02-13T11:17:40;102194.84;;;7.17;100.00
804;BME280;25687;49.976;8.240;2023-02-13T11:20:39;102193.91;;;7.31;100.00
804;BME280;25687;49.976;8.240;2023-02-13T11:26:23;102186.06;;;7.51;100.00
804;BME280;25687;49.976;8.240;2023-02-13T11:28:56;102189.53;;;7.43;100.00
804;BME280;25687;49.976;8.240;2023-02-13T11:31:42;102187.72;;;7.56;100.00
804;BME280;25687;49.976;8.240;2023-02-13T11:34:24;102179.03;;;7.71;100.00
804;BME280;25687;49.976;8.240;2023-02-13T11:36:52;102179.94;;;7.67;100.00
804;BME280;25687;49.976;8.240;2023-02-13T11:39:20;102181.66;;;7.65;100.00
804;BME280;25687;49.976;8.240;2023-02-13T11:41:47;102175.69;;;7.65;100.00
804;BME280;25687;49.976;8.240;2023-02-13T11:44:24;102167.09;;;7.72;100.00
804;BME280;25687;49.976;8.240;2023-02-13T11:46:53;102168.69;;;7.84;100.00
804;BME280;25687;49.976;8.240;2023-02-13T11:49:27;102177.22;;;7.84;100.00
804;BME280;25687;49.976;8.240;2023-02-13T11:51:57;102170.25;;;7.97;100.00
804;BME280;25687;49.976;8.240;2023-02-13T11:54:28;102170.13;;;8.10;100.00
804;BME280;25687;49.976;8.240;2023-02-13T11:57:16;102162.31;;;8.22;100.00
804;BME280;25687;49.976;8.240;2023-02-13T11:59:43;102168.22;;;8.29;100.00
804;BME280;25687;49.976;8.240;2023-02-13T12:04:46;102160.56;;;8.24;100.00
804;BME280;25687;49.976;8.240;2023-02-13T12:07:22;102166.69;;;8.14;100.00
804;BME280;25687;49.976;8.240;2023-02-13T12:09:56;102156.31;;;8.23;100.00
804;BME280;25687;49.976;8.240;2023-02-13T12:12:35;102155.41;;;8.29;100.00
804;BME280;25687;49.976;8.240;2023-02-13T12:15:17;102144.13;;;8.40;100.00
804;BME280;25687;49.976;8.240;2023-02-13T12:17:44;102143.00;;;8.63;100.00
804;BME280;25687;49.976;8.240;2023-02-13T12:20:15;102141.88;;;8.84;100.00
804;BME280;25687;49.976;8.240;2023-02-13T12:23:11;102142.75;;;8.82;100.00
804;BME280;25687;49.976;8.240;2023-02-13T12:26:30;102136.13;;;8.65;100.00
804;BME280;25687;49.976;8.240;2023-02-13T12:31:40;102127.34;;;8.82;100.00
804;BME280;25687;49.976;8.240;2023-02-13T12:34:21;102135.63;;;9.01;100.00
804;BME280;25687;49.976;8.240;2023-02-13T12:39:35;102123.81;;;8.91;100.00
804;BME280;25687;49.976;8.240;2023-02-13T12:45:20;102115.31;;;8.87;100.00
804;BME280;25687;49.976;8.240;2023-02-13T12:58:40;102103.19;;;9.48;100.00
804;BME280;25687;49.976;8.240;2023-02-13T13:01:35;102104.56;;;9.66;100.00
804;BME280;25687;49.976;8.240;2023-02-13T13:04:49;102106.31;;;9.64;100.00
804;BME280;25687;49.976;8.240;2023-02-13T13:13:15;102098.91;;;9.47;100.00
804;BME280;25687;49.976;8.240;2023-02-13T13:15:55;102096.31;;;9.50;100.00
804;BME280;25687;49.976;8.240;2023-02-13T13:18:38;102093.66;;;9.55;100.00
804;BME280;25687;49.976;8.240;2023-02-13T13:21:13;102091.19;;;9.49;100.00
804;BME280;25687;49.976;8.240;2023-02-13T13:24:04;102086.59;;;9.65;100.00
804;BME280;25687;49.976;8.240;2023-02-13T13:26:37;102089.09;;;9.69;100.00
804;BME280;25687;49.976;8.240;2023-02-13T13:29:39;102086.41;;;9.76;100.00
804;BME280;25687;49.976;8.240;2023-02-13T13:32:07;102078.53;;;9.85;100.00
804;BME280;25687;49.976;8.240;2023-02-13T13:34:38;102087.03;;;9.87;100.00
804;BME280;25687;49.976;8.240;2023-02-13T13:37:07;102084.69;;;9.75;100.00
804;BME280;25687;49.976;8.240;2023-02-13T13:42:16;102078.38;;;9.93;100.00
804;BME280;25687;49.976;8.240;2023-02-13T13:47:30;102075.59;;;10.04;100.00
804;BME280;25687;49.976;8.240;2023-02-13T13:50:02;102068.78;;;10.01;100.00
804;BME280;25687;49.976;8.240;2023-02-13T13:52:34;102071.34;;;10.01;100.00
804;BME280;25687;49.976;8.240;2023-02-13T13:55:02;102057.50;;;10.07;100.00
804;BME280;25687;49.976;8.240;2023-02-13T14:02:42;102057.59;;;10.04;100.00
804;BME280;25687;49.976;8.240;2023-02-13T14:05:29;102056.94;;;9.94;100.00
804;BME280;25687;49.976;8.240;2023-02-13T14:08:00;102054.19;;;10.01;100.00
804;BME280;25687;49.976;8.240;2023-02-13T14:23:29;102037.19;;;10.35;100.00
804;BME280;25687;49.976;8.240;2023-02-13T14:31:22;102038.03;;;10.37;100.00
804;BME280;25687;49.976;8.240;2023-02-13T14:34:03;102038.69;;;10.45;100.00
804;BME280;25687;49.976;8.240;2023-02-13T14:36:31;102041.84;;;10.58;100.00
804;BME280;25687;49.976;8.240;2023-02-13T14:41:42;102034.41;;;10.46;99.59
804;BME280;25687;49.976;8.240;2023-02-13T14:47:35;102029.75;;;10.62;98.22
804;BME280;25687;49.976;8.240;2023-02-13T14:50:00;102026.59;;;10.49;98.47
804;BME280;25687;49.976;8.240;2023-02-13T14:52:32;102027.41;;;10.51;98.38
804;BME280;25687;49.976;8.240;2023-02-13T14:55:19;102024.69;;;10.57;98.23
804;BME280;25687;49.976;8.240;2023-02-13T14:57:53;102018.22;;;10.77;96.16
804;BME280;25687;49.976;8.240;2023-02-13T15:00:27;102016.72;;;10.68;96.44
804;BME280;25687;49.976;8.240;2023-02-13T15:03:00;102023.34;;;10.78;95.10
804;BME280;25687;49.976;8.240;2023-02-13T15:05:31;102022.31;;;10.86;94.91
804;BME280;25687;49.976;8.240;2023-02-13T15:08:15;102022.66;;;11.05;92.55
804;BME280;25687;49.976;8.240;2023-02-13T15:10:50;102023.94;;;11.23;90.30
804;BME280;25687;49.976;8.240;2023-02-13T15:13:29;102019.06;;;11.45;89.28
804;BME280;25687;49.976;8.240;2023-02-13T15:16:02;102018.56;;;11.92;86.93
804;BME280;25687;49.976;8.240;2023-02-13T15:18:39;102015.28;;;11.57;86.48
804;BME280;25687;49.976;8.240;2023-02-13T15:21:05;102014.84;;;11.42;87.90
804;BME280;25687;49.976;8.240;2023-02-13T15:23:33;102012.09;;;11.16;87.87